createdAt,value
2022-12-31T00:01:23.615Z,35.50
2022-12-31T00:03:51.977Z,31.20
2022-12-31T00:06:28.569Z,32.28
2022-12-31T00:08:58.154Z,31.08
2022-12-31T00:11:28.256Z,28.80
2022-12-31T00:13:55.854Z,32.97
2022-12-31T00:16:28.858Z,28.42
2022-12-31T00:18:59.677Z,25.35
2022-12-31T00:21:30.029Z,26.50
2022-12-31T00:23:58.264Z,26.27
2022-12-31T00:26:29.563Z,27.60
2022-12-31T00:28:59.420Z,31.20
2022-12-31T00:31:35.654Z,42.13
2022-12-31T00:34:04.279Z,35.35
2022-12-31T00:36:37.560Z,28.67
2022-12-31T00:39:07.317Z,25.23
2022-12-31T00:41:35.326Z,25.05
2022-12-31T00:44:03.262Z,26.02
2022-12-31T00:46:32.005Z,27.38
2022-12-31T00:48:59.659Z,27.13
2022-12-31T00:51:30.223Z,29.02
2022-12-31T00:53:59.463Z,24.65
2022-12-31T00:56:30.674Z,24.30
2022-12-31T00:59:00.605Z,25.30
2022-12-31T01:01:31.066Z,25.88
2022-12-31T01:04:05.135Z,27.13
2022-12-31T01:06:33.053Z,24.98
2022-12-31T01:09:01.382Z,25.42
2022-12-31T01:11:31.782Z,21.13
2022-12-31T01:14:09.142Z,20.85
2022-12-31T01:16:42.779Z,18.25
2022-12-31T01:19:13.047Z,17.20
2022-12-31T01:21:41.810Z,17.88
2022-12-31T01:24:11.147Z,20.08
2022-12-31T01:26:40.596Z,24.23
2022-12-31T01:29:09.236Z,24.75
2022-12-31T01:31:37.469Z,20.33
2022-12-31T01:34:06.696Z,20.77
2022-12-31T01:36:37.099Z,18.00
2022-12-31T01:39:07.196Z,21.40
2022-12-31T01:41:37.293Z,20.80
2022-12-31T01:44:24.920Z,21.77
2022-12-31T01:46:59.003Z,19.48
2022-12-31T01:49:31.981Z,20.67
2022-12-31T01:52:11.397Z,21.77
2022-12-31T01:54:45.131Z,27.15
2022-12-31T01:57:14.097Z,25.67
2022-12-31T01:59:43.547Z,22.25
2022-12-31T02:02:12.032Z,22.77
2022-12-31T02:04:39.892Z,20.42
2022-12-31T02:07:09.845Z,22.75
2022-12-31T02:09:41.086Z,23.17
2022-12-31T02:12:11.743Z,22.15
2022-12-31T02:14:43.983Z,21.25
2022-12-31T02:17:24.229Z,22.05
2022-12-31T02:20:25.886Z,19.58
2022-12-31T02:23:03.182Z,22.85
2022-12-31T02:26:03.717Z,20.05
2022-12-31T02:28:59.086Z,20.02
2022-12-31T02:31:45.486Z,41.75
2022-12-31T02:34:28.860Z,24.45
2022-12-31T02:37:00.107Z,23.23
2022-12-31T02:39:29.380Z,20.30
2022-12-31T02:41:56.921Z,22.77
2022-12-31T02:44:44.507Z,21.58
2022-12-31T02:47:18.790Z,21.85
2022-12-31T02:50:14.618Z,22.10
2022-12-31T02:53:22.992Z,23.15
2022-12-31T02:56:19.183Z,24.52
2022-12-31T02:59:29.227Z,23.90
2022-12-31T03:02:15.569Z,18.20
2022-12-31T03:04:51.686Z,17.45
2022-12-31T03:07:25.165Z,15.88
2022-12-31T03:09:52.895Z,23.98
2022-12-31T03:12:42.182Z,26.38
2022-12-31T03:15:20.573Z,20.58
2022-12-31T03:18:05.910Z,22.70
2022-12-31T03:21:06.073Z,21.30
2022-12-31T03:24:03.469Z,20.40
2022-12-31T03:26:30.846Z,23.40
2022-12-31T03:28:58.277Z,23.65
2022-12-31T03:31:26.035Z,23.98
2022-12-31T03:33:53.823Z,95.38
2022-12-31T03:36:22.791Z,82.68
2022-12-31T03:38:52.820Z,51.90
2022-12-31T03:41:21.219Z,32.38
2022-12-31T03:43:48.516Z,28.15
2022-12-31T03:46:16.940Z,27.73
2022-12-31T03:48:44.401Z,18.27
2022-12-31T03:51:11.703Z,17.40
2022-12-31T03:53:40.034Z,22.15
2022-12-31T03:56:07.910Z,20.45
2022-12-31T03:58:35.712Z,18.48
2022-12-31T04:01:04.977Z,18.45
2022-12-31T04:03:33.082Z,17.65
2022-12-31T04:06:01.222Z,21.80
2022-12-31T04:08:29.931Z,20.45
2022-12-31T04:10:58.365Z,19.63
2022-12-31T04:13:26.921Z,16.08
2022-12-31T04:15:56.897Z,24.95
2022-12-31T04:18:24.919Z,29.75
2022-12-31T04:20:52.394Z,24.35
2022-12-31T04:23:20.714Z,22.95
2022-12-31T04:25:48.106Z,19.90
2022-12-31T04:28:16.078Z,25.10
2022-12-31T04:30:48.806Z,38.67
2022-12-31T04:33:16.274Z,81.30
2022-12-31T04:35:44.873Z,21.88
2022-12-31T04:38:12.558Z,20.60
2022-12-31T04:40:58.428Z,19.58
2022-12-31T04:43:25.767Z,19.70
2022-12-31T04:45:56.144Z,19.25
2022-12-31T04:48:24.807Z,17.40
2022-12-31T04:50:52.543Z,19.70
2022-12-31T04:53:19.905Z,18.45
2022-12-31T04:55:47.342Z,16.92
2022-12-31T04:58:14.892Z,14.45
2022-12-31T05:00:50.768Z,18.50
2022-12-31T05:03:19.032Z,20.85
2022-12-31T05:05:47.680Z,17.90
2022-12-31T05:08:16.854Z,17.45
2022-12-31T05:10:50.020Z,16.48
2022-12-31T05:13:17.993Z,14.63
2022-12-31T05:15:53.095Z,17.85
2022-12-31T05:18:21.323Z,17.02
2022-12-31T05:20:50.161Z,20.80
2022-12-31T05:23:18.658Z,20.10
2022-12-31T05:25:48.088Z,16.88
2022-12-31T05:28:17.593Z,15.63
2022-12-31T05:30:51.628Z,14.90
2022-12-31T05:33:20.014Z,16.52
2022-12-31T05:35:47.463Z,20.17
2022-12-31T05:38:15.814Z,20.58
2022-12-31T05:40:43.268Z,18.58
2022-12-31T05:43:10.791Z,18.80
2022-12-31T05:45:44.897Z,38.17
2022-12-31T05:48:14.789Z,37.60
2022-12-31T05:50:42.027Z,38.28
2022-12-31T05:53:09.452Z,25.40
2022-12-31T05:55:36.803Z,18.73
2022-12-31T05:58:04.795Z,17.52
2022-12-31T06:00:32.778Z,20.30
2022-12-31T06:03:00.288Z,22.70
2022-12-31T06:05:27.971Z,22.40
2022-12-31T06:07:55.803Z,21.08
2022-12-31T06:10:23.618Z,21.27
2022-12-31T06:12:51.614Z,23.95
2022-12-31T06:15:19.172Z,31.30
2022-12-31T06:17:46.419Z,49.17
2022-12-31T06:20:17.024Z,43.17
2022-12-31T06:22:45.420Z,41.28
2022-12-31T06:25:13.324Z,41.72
2022-12-31T06:27:40.720Z,34.85
2022-12-31T06:30:09.209Z,37.28
2022-12-31T06:32:36.830Z,32.60
2022-12-31T06:35:06.955Z,24.70
2022-12-31T06:37:35.371Z,26.13
2022-12-31T06:40:03.532Z,25.58
2022-12-31T06:42:32.686Z,22.40
2022-12-31T06:45:01.564Z,23.75
2022-12-31T06:47:29.511Z,23.40
2022-12-31T06:49:57.290Z,24.75
2022-12-31T06:52:24.884Z,29.63
2022-12-31T06:54:53.213Z,31.15
2022-12-31T06:57:21.772Z,34.90
2022-12-31T06:59:49.704Z,32.60
2022-12-31T07:02:23.675Z,31.25
2022-12-31T07:05:16.107Z,28.95
2022-12-31T07:08:03.918Z,36.13
2022-12-31T07:10:51.910Z,34.58
2022-12-31T07:13:38.568Z,37.25
2022-12-31T07:16:38.660Z,31.77
2022-12-31T07:19:25.874Z,35.43
2022-12-31T07:21:56.220Z,34.28
2022-12-31T07:24:24.131Z,33.08
2022-12-31T07:27:17.893Z,32.25
2022-12-31T07:29:59.096Z,30.30
2022-12-31T07:32:57.149Z,26.95
2022-12-31T07:35:50.488Z,26.00
2022-12-31T07:38:24.025Z,28.30
2022-12-31T07:41:22.173Z,50.00
2022-12-31T07:44:23.149Z,56.75
2022-12-31T07:47:01.454Z,93.63
2022-12-31T07:49:31.021Z,49.38
2022-12-31T07:51:59.117Z,64.22
2022-12-31T07:54:26.572Z,64.45
2022-12-31T07:56:59.362Z,44.50
2022-12-31T07:59:46.995Z,41.97
2022-12-31T08:02:35.951Z,42.30
2022-12-31T08:05:14.417Z,58.03
2022-12-31T08:08:13.170Z,64.78
2022-12-31T08:11:22.616Z,47.22
2022-12-31T08:13:52.959Z,42.55
2022-12-31T08:16:24.237Z,33.78
2022-12-31T08:18:53.188Z,38.67
2022-12-31T08:21:44.763Z,39.78
2022-12-31T08:24:22.914Z,36.65
2022-12-31T08:27:03.397Z,37.72
2022-12-31T08:29:35.925Z,39.40
2022-12-31T08:32:20.687Z,39.90
2022-12-31T08:35:02.976Z,39.28
2022-12-31T08:37:45.156Z,41.55
2022-12-31T08:40:31.976Z,37.65
2022-12-31T08:43:27.775Z,40.72
2022-12-31T08:45:59.678Z,38.30
2022-12-31T08:48:40.131Z,36.35
2022-12-31T08:51:15.611Z,50.72
2022-12-31T08:53:43.536Z,96.90
2022-12-31T08:56:20.637Z,53.67
2022-12-31T08:59:06.042Z,50.60
2022-12-31T09:02:01.219Z,48.95
2022-12-31T09:04:56.045Z,52.53
2022-12-31T09:07:36.247Z,55.60
2022-12-31T09:10:18.298Z,39.53
2022-12-31T09:13:13.605Z,115.28
2022-12-31T09:15:47.236Z,150.93
2022-12-31T09:18:16.597Z,102.70
2022-12-31T09:20:44.848Z,45.60
2022-12-31T09:30:00.482Z,40.25
2022-12-31T09:32:49.345Z,37.05
2022-12-31T09:35:36.086Z,37.97
2022-12-31T09:38:23.018Z,39.83
2022-12-31T09:41:17.638Z,50.05
2022-12-31T09:44:31.731Z,38.92
2022-12-31T09:47:36.988Z,36.60
2022-12-31T09:50:21.815Z,36.72
2022-12-31T09:53:14.398Z,37.15
2022-12-31T09:56:13.464Z,33.75
2022-12-31T09:59:20.962Z,28.85
2022-12-31T10:02:01.800Z,30.90
2022-12-31T10:04:52.519Z,28.35
2022-12-31T10:07:21.266Z,33.25
2022-12-31T10:09:57.059Z,31.70
2022-12-31T10:12:52.504Z,31.95
2022-12-31T10:15:50.861Z,70.57
2022-12-31T10:18:29.293Z,87.13
2022-12-31T10:21:19.995Z,95.22
2022-12-31T10:24:08.783Z,136.52
2022-12-31T10:27:01.791Z,35.58
2022-12-31T10:29:49.216Z,37.67
2022-12-31T10:32:24.987Z,40.28
2022-12-31T10:35:26.131Z,38.17
2022-12-31T10:38:12.553Z,37.88
2022-12-31T10:40:42.772Z,37.70
2022-12-31T10:46:22.673Z,25.85
2022-12-31T10:49:22.181Z,25.50
2022-12-31T10:52:16.812Z,24.88
2022-12-31T10:55:02.585Z,25.50
2022-12-31T10:57:52.302Z,26.73
2022-12-31T11:00:21.359Z,27.30
2022-12-31T11:03:13.165Z,32.08
2022-12-31T11:06:23.285Z,25.20
2022-12-31T11:09:10.595Z,67.10
2022-12-31T11:12:08.317Z,30.70
2022-12-31T11:14:48.343Z,84.65
2022-12-31T11:17:21.202Z,65.60
2022-12-31T11:20:17.290Z,71.97
2022-12-31T11:23:04.960Z,87.47
2022-12-31T11:25:44.739Z,84.53
2022-12-31T11:29:04.506Z,104.55
2022-12-31T11:32:20.623Z,117.47
2022-12-31T11:35:01.015Z,133.27
2022-12-31T11:37:49.830Z,26.35
2022-12-31T11:40:38.393Z,22.30
2022-12-31T11:43:20.235Z,21.63
2022-12-31T11:46:06.790Z,20.08
2022-12-31T11:49:05.310Z,22.13
2022-12-31T11:51:54.050Z,24.17
2022-12-31T11:54:58.206Z,24.27
2022-12-31T11:57:28.309Z,23.80
2022-12-31T12:00:10.327Z,24.00
2022-12-31T12:02:46.995Z,25.67
2022-12-31T12:05:17.433Z,26.15
2022-12-31T12:07:45.097Z,27.20
2022-12-31T12:10:33.573Z,24.45
2022-12-31T12:13:27.714Z,23.13
2022-12-31T12:16:05.523Z,23.05
2022-12-31T12:18:47.558Z,21.20
2022-12-31T12:21:20.823Z,23.10
2022-12-31T12:23:57.315Z,23.02
2022-12-31T12:26:41.830Z,20.75
2022-12-31T12:29:21.636Z,22.02
2022-12-31T12:32:16.008Z,20.58
2022-12-31T12:34:49.387Z,19.55
2022-12-31T12:37:30.148Z,25.25
2022-12-31T12:40:19.469Z,23.27
2022-12-31T12:42:52.024Z,33.97
2022-12-31T12:45:51.487Z,31.75
2022-12-31T12:48:42.629Z,21.40
2022-12-31T12:51:43.989Z,22.37
2022-12-31T12:54:48.476Z,23.52
2022-12-31T12:57:25.836Z,21.27
2022-12-31T13:00:16.233Z,18.80
2022-12-31T13:03:08.137Z,23.17
2022-12-31T13:05:55.400Z,23.90
2022-12-31T13:08:29.203Z,21.27
2022-12-31T13:11:18.913Z,22.80
2022-12-31T13:14:31.357Z,20.67
2022-12-31T13:17:13.873Z,20.88
2022-12-31T13:20:05.837Z,46.95
2022-12-31T13:22:48.225Z,41.97
2022-12-31T13:25:38.849Z,22.17
2022-12-31T13:28:12.016Z,21.35
2022-12-31T13:30:48.247Z,16.80
2022-12-31T13:33:29.104Z,16.02
2022-12-31T13:36:08.494Z,14.57
2022-12-31T13:39:02.547Z,14.95
2022-12-31T13:42:10.996Z,14.38
2022-12-31T13:44:56.313Z,12.75
2022-12-31T13:47:43.104Z,11.25
2022-12-31T13:50:20.390Z,13.20
2022-12-31T13:52:54.543Z,12.82
2022-12-31T13:55:45.562Z,13.77
2022-12-31T13:58:20.824Z,13.98
2022-12-31T14:00:59.029Z,13.10
2022-12-31T14:03:49.936Z,13.15
2022-12-31T14:06:40.674Z,14.40
2022-12-31T14:09:15.499Z,13.27
2022-12-31T14:12:24.853Z,12.20
2022-12-31T14:15:04.051Z,14.32
2022-12-31T14:17:49.679Z,12.07
2022-12-31T14:20:49.987Z,13.93
2022-12-31T14:23:46.355Z,13.13
2022-12-31T14:26:17.072Z,11.48
2022-12-31T14:29:01.557Z,12.02
2022-12-31T14:31:48.777Z,15.48
2022-12-31T14:34:16.443Z,18.10
2022-12-31T14:37:07.891Z,19.25
2022-12-31T14:40:23.632Z,20.23
2022-12-31T14:43:06.662Z,22.17
2022-12-31T14:45:56.687Z,21.60
2022-12-31T14:48:37.135Z,23.80
2022-12-31T14:51:05.970Z,21.00
2022-12-31T14:53:34.787Z,22.23
2022-12-31T14:56:28.621Z,25.77
2022-12-31T14:59:01.748Z,34.67
2022-12-31T15:01:30.254Z,41.92
2022-12-31T15:03:59.638Z,34.67
2022-12-31T15:06:43.499Z,34.95
2022-12-31T15:09:36.167Z,38.10
2022-12-31T15:12:30.562Z,46.10
2022-12-31T15:15:24.289Z,50.45
2022-12-31T15:17:55.042Z,48.28
2022-12-31T15:21:02.981Z,92.72
2022-12-31T15:23:38.969Z,56.15
2022-12-31T15:26:20.478Z,60.75
2022-12-31T15:29:05.380Z,57.72
2022-12-31T15:31:35.694Z,41.47
2022-12-31T15:34:06.143Z,34.78
2022-12-31T15:39:28.624Z,28.08
2022-12-31T15:45:17.371Z,55.65
2022-12-31T15:47:50.600Z,35.10
2022-12-31T15:50:23.629Z,38.60
2022-12-31T15:53:02.175Z,46.35
2022-12-31T15:55:34.363Z,42.95
2022-12-31T15:58:18.985Z,64.18
2022-12-31T16:01:05.158Z,62.60
2022-12-31T16:03:35.197Z,47.15
2022-12-31T16:06:13.598Z,40.17
2022-12-31T16:08:46.882Z,40.70
2022-12-31T16:11:16.785Z,78.00
2022-12-31T16:13:50.527Z,88.05
2022-12-31T16:16:24.614Z,87.60
2022-12-31T16:19:00.698Z,95.88
2022-12-31T16:21:33.128Z,92.10
2022-12-31T16:24:29.864Z,99.68
2022-12-31T16:27:02.896Z,89.85
2022-12-31T16:29:31.107Z,94.40
2022-12-31T16:31:59.583Z,122.03
2022-12-31T16:34:28.532Z,97.68
2022-12-31T16:37:01.554Z,90.88
2022-12-31T16:39:32.778Z,91.55
2022-12-31T16:42:20.385Z,94.32
2022-12-31T16:44:49.106Z,86.38
2022-12-31T16:47:41.583Z,89.05
2022-12-31T16:50:17.331Z,89.38
2022-12-31T16:52:48.459Z,92.03
2022-12-31T16:55:23.673Z,107.95
2022-12-31T16:57:55.902Z,87.80
2022-12-31T17:00:26.440Z,85.35
2022-12-31T17:06:07.400Z,54.40
2022-12-31T17:08:45.068Z,56.40
2022-12-31T17:11:52.153Z,64.30
2022-12-31T17:14:23.449Z,68.15
2022-12-31T17:17:03.652Z,67.03
2022-12-31T17:19:42.832Z,66.38
2022-12-31T17:22:36.968Z,65.68
2022-12-31T17:25:15.344Z,60.45
2022-12-31T17:27:54.380Z,56.20
2022-12-31T17:30:45.704Z,70.18
2022-12-31T17:33:21.815Z,49.70
2022-12-31T17:35:55.233Z,24.50
2022-12-31T17:38:26.007Z,20.98
2022-12-31T17:40:54.902Z,27.40
2022-12-31T17:43:23.895Z,30.35
2022-12-31T17:45:55.865Z,28.25
2022-12-31T17:48:25.168Z,21.08
2022-12-31T17:51:01.214Z,18.20
2022-12-31T17:53:29.269Z,19.02
2022-12-31T17:56:02.505Z,18.52
2022-12-31T17:58:43.726Z,20.40
2022-12-31T18:01:16.074Z,18.63
2022-12-31T18:03:44.125Z,19.48
2022-12-31T18:06:16.495Z,21.70
2022-12-31T18:08:45.279Z,18.85
2022-12-31T18:11:18.566Z,23.58
2022-12-31T18:13:47.099Z,32.80
2022-12-31T18:16:15.473Z,48.10
2022-12-31T18:18:43.971Z,46.28
2022-12-31T18:21:34.730Z,34.63
2022-12-31T18:26:34.140Z,21.23
2022-12-31T18:29:19.467Z,21.48
2022-12-31T18:31:49.295Z,16.15
2022-12-31T18:34:18.531Z,22.63
2022-12-31T18:36:46.665Z,21.45
2022-12-31T18:39:14.388Z,23.15
2022-12-31T18:41:51.456Z,25.55
2022-12-31T18:44:19.700Z,33.78
2022-12-31T18:46:47.823Z,33.28
2022-12-31T18:49:15.086Z,26.48
2022-12-31T18:51:43.106Z,29.90
2022-12-31T18:54:12.110Z,27.67
2022-12-31T18:56:46.521Z,30.02
2022-12-31T18:59:15.149Z,29.98
2022-12-31T19:01:43.150Z,32.65
2022-12-31T19:04:16.885Z,29.23
2022-12-31T19:06:48.720Z,31.80
2022-12-31T19:09:43.586Z,27.13
2022-12-31T19:12:05.502Z,21.92
2022-12-31T19:14:32.891Z,25.20
2022-12-31T19:19:28.970Z,19.52
2022-12-31T19:21:56.324Z,20.15
2022-12-31T19:24:29.627Z,20.33
2022-12-31T19:26:57.117Z,24.83
2022-12-31T19:29:27.051Z,21.88
2022-12-31T19:31:54.910Z,22.23
2022-12-31T19:34:23.128Z,23.38
2022-12-31T19:36:50.466Z,20.48
2022-12-31T19:39:21.908Z,22.45
2022-12-31T19:41:56.615Z,33.28
2022-12-31T19:44:26.908Z,29.92
2022-12-31T19:46:55.223Z,18.67
2022-12-31T19:49:23.551Z,16.15
2022-12-31T19:51:51.237Z,17.45
2022-12-31T19:54:18.743Z,18.08
2022-12-31T19:56:46.438Z,17.27
2022-12-31T19:59:13.826Z,19.35
2022-12-31T20:01:42.695Z,17.90
2022-12-31T20:04:10.274Z,16.60
2022-12-31T20:06:38.707Z,19.20
2022-12-31T20:09:06.067Z,25.38
2022-12-31T20:11:33.549Z,27.48
2022-12-31T20:14:02.842Z,29.05
2022-12-31T20:16:33.078Z,22.45
2022-12-31T20:19:01.047Z,16.10
2022-12-31T20:21:29.579Z,16.25
2022-12-31T20:23:57.352Z,19.38
2022-12-31T20:26:26.055Z,21.33
2022-12-31T20:28:54.153Z,21.95
2022-12-31T20:31:24.945Z,19.58
2022-12-31T20:36:24.172Z,25.73
2022-12-31T20:38:51.814Z,43.37
2022-12-31T20:41:22.242Z,43.13
2022-12-31T20:43:51.588Z,31.60
2022-12-31T20:46:22.592Z,29.88
2022-12-31T20:48:52.591Z,26.38
2022-12-31T20:51:22.186Z,25.17
2022-12-31T20:53:57.650Z,24.30
2022-12-31T20:56:28.054Z,20.30
2022-12-31T20:58:55.510Z,25.92
2022-12-31T21:01:23.866Z,25.60
2022-12-31T21:04:08.611Z,24.65
2022-12-31T21:06:36.789Z,22.30
2022-12-31T21:09:07.534Z,27.25
2022-12-31T21:11:54.484Z,20.43
2022-12-31T21:14:22.125Z,25.00
2022-12-31T21:16:50.098Z,39.22
2022-12-31T21:19:17.551Z,48.85
2022-12-31T21:21:44.973Z,33.60
2022-12-31T21:24:12.844Z,42.90
2022-12-31T21:26:41.324Z,38.05
2022-12-31T21:29:09.952Z,22.30
2022-12-31T21:31:37.404Z,37.20
2022-12-31T21:34:04.663Z,34.28
2022-12-31T21:36:33.198Z,28.52
2022-12-31T21:39:01.472Z,23.73
2022-12-31T21:41:48.157Z,24.80
2022-12-31T21:44:16.736Z,23.88
2022-12-31T21:47:15.944Z,24.35
2022-12-31T21:49:31.591Z,27.25
2022-12-31T21:52:45.267Z,22.02
2022-12-31T21:55:43.719Z,24.63
2022-12-31T21:58:31.696Z,26.50
2022-12-31T22:01:19.930Z,21.23
2022-12-31T22:03:48.148Z,20.95
2022-12-31T22:06:22.615Z,22.48
2022-12-31T22:08:52.334Z,21.70
2022-12-31T22:15:21.752Z,23.20
2022-12-31T22:17:54.595Z,25.13
2022-12-31T22:20:29.516Z,24.00
2022-12-31T22:22:56.985Z,24.98
2022-12-31T22:25:24.378Z,23.80
2022-12-31T22:28:27.721Z,24.65
2022-12-31T22:30:45.615Z,29.15
2022-12-31T22:33:12.974Z,25.20
2022-12-31T22:35:41.374Z,21.38
2022-12-31T22:38:12.137Z,22.95
2022-12-31T22:40:40.400Z,23.05
2022-12-31T22:43:07.728Z,24.85
2022-12-31T22:45:42.329Z,29.05
2022-12-31T22:48:11.165Z,64.53
2022-12-31T22:50:39.916Z,48.45
2022-12-31T22:53:07.367Z,23.90
2022-12-31T22:55:35.916Z,24.58
2022-12-31T22:58:03.776Z,21.55
2022-12-31T23:00:40.612Z,24.17
2022-12-31T23:03:08.402Z,23.15
2022-12-31T23:05:35.992Z,21.65
2022-12-31T23:08:11.867Z,22.83
2022-12-31T23:11:00.509Z,23.17
2022-12-31T23:13:50.999Z,19.85
2022-12-31T23:16:40.230Z,21.95
2022-12-31T23:19:28.557Z,24.10
2022-12-31T23:22:15.603Z,21.83
2022-12-31T23:24:43.978Z,22.05
2022-12-31T23:27:11.864Z,18.73
2022-12-31T23:29:46.661Z,26.10
2022-12-31T23:32:16.729Z,26.90
2022-12-31T23:34:46.733Z,26.65
2022-12-31T23:37:14.886Z,31.00
2022-12-31T23:39:43.468Z,26.42
2022-12-31T23:42:10.941Z,25.48
2022-12-31T23:44:39.061Z,21.58
2022-12-31T23:47:06.781Z,22.08
2022-12-31T23:49:35.249Z,18.52
2022-12-31T23:52:09.722Z,23.77
2022-12-31T23:54:48.548Z,27.45
2022-12-31T23:57:17.615Z,30.17
2022-12-31T23:59:46.408Z,24.80
